Time;durP1;ratioP1;P1;durP2;ratioP2;P2;SDS_P1;SDS_P2;PMS_P1;PMS_P2;Temp;Humidity;BMP_temperature;BMP_pressure;BME280_temperature;BME280_humidity;BME280_pressure;Samples;Min_cycle;Max_cycle;Signal;HPM_P1;HPM_P2
2023/03/18 00:01:26;;;;;;;5.10;4.47;;;9.40;65.10;;;;;;5073761;28;20481;-76
2023/03/18 00:03:52;;;;;;;5.55;4.50;;;9.40;65.10;;;;;;5072482;28;20039;-75
2023/03/18 00:06:19;;;;;;;5.82;4.57;;;9.40;65.10;;;;;;5073904;28;20032;-75
2023/03/18 00:08:46;;;;;;;6.28;4.75;;;9.40;65.20;;;;;;5073825;28;20029;-75
2023/03/18 00:11:15;;;;;;;5.82;4.95;;;9.40;65.20;;;;;;5073297;28;20085;-75
2023/03/18 00:13:41;;;;;;;5.78;4.53;;;9.40;65.20;;;;;;5072647;28;20035;-75
2023/03/18 00:16:10;;;;;;;5.90;4.75;;;9.40;65.20;;;;;;5073715;28;20393;-74
2023/03/18 00:18:36;;;;;;;5.45;4.32;;;9.30;65.10;;;;;;5072392;28;20033;-73
2023/03/18 00:21:03;;;;;;;5.95;4.65;;;9.40;65.30;;;;;;5072004;28;20383;-74
2023/03/18 00:23:30;;;;;;;6.10;4.45;;;9.40;65.30;;;;;;5073535;28;20485;-74
2023/03/18 00:25:58;;;;;;;5.18;4.35;;;9.30;65.20;;;;;;5072265;28;20045;-74
2023/03/18 00:28:24;;;;;;;5.88;4.68;;;9.30;65.20;;;;;;5073642;28;20025;-75
2023/03/18 00:30:50;;;;;;;5.90;4.93;;;9.40;65.20;;;;;;5073021;28;20478;-75
2023/03/18 00:33:17;;;;;;;6.60;4.68;;;9.40;65.20;;;;;;5073481;28;20051;-74
2023/03/18 00:35:44;;;;;;;5.28;4.38;;;9.40;65.10;;;;;;5056712;28;20490;-75
2023/03/18 00:38:19;;;;;;;5.40;4.20;;;9.40;65.10;;;;;;5055275;28;20039;-75
2023/03/18 00:41:03;;;;;;;6.22;5.00;;;9.40;65.10;;;;;;5082418;28;20024;-75
2023/03/18 00:43:32;;;;;;;5.75;4.65;;;9.30;65.00;;;;;;5075094;28;20038;-74
2023/03/18 00:45:59;;;;;;;6.65;4.47;;;9.40;65.10;;;;;;5093349;28;20374;-75
2023/03/18 00:48:25;;;;;;;5.68;4.40;;;9.30;65.00;;;;;;5093509;28;20020;-74
2023/03/18 00:50:51;;;;;;;5.65;4.47;;;9.40;65.10;;;;;;5093224;28;20069;-74
2023/03/18 00:53:17;;;;;;;6.22;4.85;;;9.30;65.00;;;;;;5093323;28;20033;-74
2023/03/18 00:55:44;;;;;;;5.75;4.68;;;9.30;65.00;;;;;;5075107;28;20032;-75
2023/03/18 00:58:11;;;;;;;5.57;4.65;;;9.30;65.00;;;;;;5093113;28;20527;-75
2023/03/18 01:00:38;;;;;;;6.57;4.90;;;9.30;65.10;;;;;;5074850;28;20039;-76
2023/03/18 01:03:05;;;;;;;5.95;4.80;;;9.30;65.10;;;;;;5074051;28;20059;-75
2023/03/18 01:05:32;;;;;;;6.63;4.53;;;9.30;65.10;;;;;;5093271;28;20028;-75
2023/03/18 01:07:58;;;;;;;5.28;4.47;;;9.30;65.10;;;;;;5093017;28;20115;-74
2023/03/18 01:10:26;;;;;;;5.32;4.70;;;9.30;65.00;;;;;;5093147;28;20093;-74
2023/03/18 01:12:52;;;;;;;6.05;4.63;;;9.30;65.00;;;;;;5092989;28;20024;-89
2023/03/18 01:15:19;;;;;;;6.65;5.50;;;9.30;65.00;;;;;;5093088;28;20028;-76
2023/03/18 01:17:46;;;;;;;5.22;4.30;;;9.40;65.10;;;;;;5093447;28;20024;-76
2023/03/18 01:20:15;;;;;;;5.63;4.65;;;9.40;65.00;;;;;;5075196;28;20027;-79
2023/03/18 01:22:41;;;;;;;5.80;4.60;;;9.40;65.00;;;;;;5075239;28;20028;-75
2023/03/18 01:25:09;;;;;;;5.38;4.63;;;9.30;65.00;;;;;;5092842;28;20109;-75
2023/03/18 01:27:35;;;;;;;6.13;5.10;;;9.40;65.00;;;;;;5075070;28;20059;-75
2023/03/18 01:30:02;;;;;;;5.70;4.78;;;9.30;64.90;;;;;;5074671;28;20036;-75
2023/03/18 01:32:27;;;;;;;6.53;5.10;;;9.30;64.90;;;;;;5092638;28;20016;-75
2023/03/18 01:34:53;;;;;;;6.50;5.32;;;9.40;64.90;;;;;;5092701;28;20474;-75
2023/03/18 01:37:19;;;;;;;5.43;4.72;;;9.30;64.80;;;;;;5093384;28;20034;-75
2023/03/18 01:39:45;;;;;;;6.05;4.72;;;9.30;64.80;;;;;;5091502;28;20043;-75
2023/03/18 01:42:23;;;;;;;5.45;4.45;;;9.30;64.80;;;;;;5072202;28;20420;-75
2023/03/18 01:44:49;;;;;;;5.68;4.68;;;9.30;64.80;;;;;;5072600;28;20119;-74
2023/03/18 01:47:19;;;;;;;6.00;4.60;;;9.30;64.80;;;;;;5054764;28;20566;-75
2023/03/18 01:49:48;;;;;;;6.20;4.95;;;9.30;64.80;;;;;;5054634;28;20033;-74
2023/03/18 01:52:17;;;;;;;7.40;5.22;;;9.30;64.80;;;;;;5054597;28;20028;-75
2023/03/18 01:55:01;;;;;;;6.05;5.00;;;9.30;64.70;;;;;;5072439;28;20021;-76
2023/03/18 01:57:29;;;;;;;5.63;4.90;;;9.30;64.80;;;;;;5054719;28;20020;-74
2023/03/18 01:59:56;;;;;;;5.55;4.63;;;9.30;64.80;;;;;;5072300;28;20036;-74
2023/03/18 02:02:23;;;;;;;5.97;4.93;;;9.30;64.80;;;;;;5054349;28;20546;-74
2023/03/18 02:04:52;;;;;;;6.20;4.78;;;9.30;64.80;;;;;;5072544;28;20033;-74
2023/03/18 02:07:32;;;;;;;5.90;4.57;;;9.30;64.90;;;;;;5072430;28;20028;-77
2023/03/18 02:10:01;;;;;;;5.85;4.90;;;9.30;64.80;;;;;;5072492;28;20435;-76
2023/03/18 02:12:32;;;;;;;5.63;4.43;;;9.30;64.80;;;;;;5054671;28;20028;-74
2023/03/18 02:15:00;;;;;;;6.13;4.82;;;9.30;64.80;;;;;;5075321;28;20543;-75
2023/03/18 02:17:30;;;;;;;6.03;4.90;;;9.30;64.80;;;;;;5058078;28;20056;-74
2023/03/18 02:20:02;;;;;;;4.90;4.15;;;9.30;64.80;;;;;;5057522;28;20119;-74
2023/03/18 02:22:37;;;;;;;5.68;4.72;;;9.30;64.80;;;;;;5058022;28;20043;-75
2023/03/18 02:25:09;;;;;;;5.03;4.32;;;9.30;64.80;;;;;;5075827;28;20025;-74
2023/03/18 02:27:39;;;;;;;5.10;4.43;;;9.20;64.70;;;;;;5076352;28;20481;-75
2023/03/18 02:30:19;;;;;;;5.63;4.72;;;9.30;64.80;;;;;;5076300;28;20039;-74
2023/03/18 02:32:47;;;;;;;5.93;4.55;;;9.20;64.80;;;;;;5076624;28;20020;-74
2023/03/18 02:35:13;;;;;;;5.03;4.38;;;9.20;64.80;;;;;;5090212;28;20101;-75
2023/03/18 02:37:39;;;;;;;5.28;4.38;;;9.20;64.80;;;;;;5077945;28;20035;-75
2023/03/18 02:40:41;;;;;;;6.32;4.70;;;9.20;64.80;;;;;;5099545;28;20024;-75
2023/03/18 02:43:22;;;;;;;5.70;4.55;;;9.20;64.80;;;;;;5016312;28;20388;-74
2023/03/18 02:46:01;;;;;;;6.00;4.78;;;9.20;64.80;;;;;;5108246;28;20118;-77
2023/03/18 02:48:32;;;;;;;5.47;4.35;;;9.20;64.90;;;;;;5116519;28;20106;-74
2023/03/18 02:50:58;;;;;;;5.80;4.32;;;9.20;64.90;;;;;;5097663;28;20028;-75
2023/03/18 02:53:25;;;;;;;5.88;4.70;;;9.20;64.90;;;;;;5116272;28;20055;-74
2023/03/18 02:55:50;;;;;;;5.47;4.57;;;9.10;64.90;;;;;;5080994;28;20027;-76
2023/03/18 02:58:16;;;;;;;5.63;4.43;;;9.20;65.00;;;;;;5115934;28;20023;-75
2023/03/18 03:00:42;;;;;;;6.13;4.50;;;9.10;64.90;;;;;;5115986;28;20026;-74
2023/03/18 03:03:07;;;;;;;5.55;4.70;;;9.20;64.90;;;;;;5097269;28;20063;-74
2023/03/18 03:05:34;;;;;;;5.85;4.60;;;9.10;64.90;;;;;;5115764;28;20149;-74
2023/03/18 03:07:59;;;;;;;5.65;4.30;;;9.20;65.00;;;;;;5097493;28;20561;-75
2023/03/18 03:10:25;;;;;;;5.15;4.05;;;9.10;65.00;;;;;;5115882;28;20115;-74
2023/03/18 03:12:51;;;;;;;5.43;4.55;;;9.20;65.00;;;;;;5097503;28;20350;-87
2023/03/18 03:15:18;;;;;;;5.47;4.53;;;9.10;64.90;;;;;;5115736;28;20031;-74
2023/03/18 03:17:44;;;;;;;5.35;4.40;;;9.20;65.00;;;;;;5115948;28;20027;-74
2023/03/18 03:20:11;;;;;;;5.45;4.38;;;9.10;64.90;;;;;;5097108;28;20427;-77
2023/03/18 03:22:36;;;;;;;5.25;4.47;;;9.20;65.00;;;;;;5115381;28;20019;-74
2023/03/18 03:25:03;;;;;;;5.13;4.57;;;9.10;64.90;;;;;;5114323;28;20076;-74
2023/03/18 03:27:29;;;;;;;5.38;4.30;;;9.10;65.00;;;;;;5115377;28;20102;-74
2023/03/18 03:29:54;;;;;;;5.20;4.40;;;9.10;65.00;;;;;;5115517;28;20051;-74
2023/03/18 03:32:21;;;;;;;4.88;4.38;;;9.10;65.00;;;;;;5115281;28;20076;-77
2023/03/18 03:34:48;;;;;;;5.75;4.55;;;9.10;65.00;;;;;;5103034;28;20100;-74
2023/03/18 03:37:13;;;;;;;5.35;4.53;;;9.10;65.00;;;;;;5094723;28;20028;-74
2023/03/18 03:39:39;;;;;;;5.05;4.18;;;9.10;65.00;;;;;;5095125;28;20051;-76
2023/03/18 03:42:05;;;;;;;4.93;4.10;;;9.10;65.10;;;;;;5077099;28;20042;-75
2023/03/18 03:44:31;;;;;;;5.07;4.22;;;9.00;65.00;;;;;;5077546;28;20028;-79
2023/03/18 03:46:57;;;;;;;4.70;3.90;;;9.00;65.20;;;;;;5094704;28;20027;-75
2023/03/18 03:49:23;;;;;;;4.88;3.90;;;9.00;65.20;;;;;;5094421;28;20446;-78
2023/03/18 03:51:49;;;;;;;4.63;3.95;;;9.00;65.20;;;;;;5094534;28;20377;-81
2023/03/18 03:54:15;;;;;;;4.50;3.83;;;9.00;65.20;;;;;;5094604;28;20024;-74
2023/03/18 03:56:42;;;;;;;5.00;4.20;;;9.10;65.20;;;;;;5094112;28;20027;-76
2023/03/18 03:59:09;;;;;;;4.70;3.95;;;9.10;65.20;;;;;;5075951;28;20028;-75
2023/03/18 04:01:35;;;;;;;5.28;4.13;;;9.00;65.40;;;;;;5094191;28;20378;-75
2023/03/18 04:04:01;;;;;;;5.28;4.50;;;9.00;65.10;;;;;;5094369;28;20444;-75
2023/03/18 04:06:28;;;;;;;4.57;3.63;;;9.00;65.10;;;;;;5094381;28;20027;-74
2023/03/18 04:08:54;;;;;;;5.05;4.20;;;9.00;65.10;;;;;;5094388;28;20066;-76
2023/03/18 04:11:20;;;;;;;4.43;3.80;;;9.10;65.20;;;;;;5076076;28;20367;-74
2023/03/18 04:13:46;;;;;;;5.10;4.00;;;9.10;65.10;;;;;;5094585;28;20032;-74
2023/03/18 04:16:13;;;;;;;4.68;3.88;;;9.10;65.10;;;;;;5094469;28;20032;-79
2023/03/18 04:18:39;;;;;;;4.78;4.18;;;9.10;65.10;;;;;;5094216;28;20020;-76
2023/03/18 04:21:07;;;;;;;4.65;3.80;;;9.10;65.10;;;;;;5075514;28;20484;-75
2023/03/18 04:23:33;;;;;;;4.40;3.85;;;9.00;65.10;;;;;;5075607;28;20031;-75
2023/03/18 04:25:59;;;;;;;4.78;4.00;;;9.00;65.70;;;;;;5075738;28;20032;-78
2023/03/18 04:28:25;;;;;;;4.03;3.42;;;9.00;65.20;;;;;;5093903;28;20053;-74
2023/03/18 04:30:50;;;;;;;4.38;3.90;;;9.00;65.30;;;;;;5093713;28;20074;-75
2023/03/18 04:33:17;;;;;;;4.18;3.60;;;9.00;65.40;;;;;;5093906;28;20070;-79
2023/03/18 04:35:42;;;;;;;4.45;3.92;;;8.90;65.30;;;;;;5093897;28;20056;-75
2023/03/18 04:38:09;;;;;;;3.95;3.55;;;8.90;65.30;;;;;;5093648;28;20521;-76
2023/03/18 04:40:34;;;;;;;4.32;3.42;;;8.90;65.40;;;;;;5075340;28;20028;-74
2023/03/18 04:43:00;;;;;;;4.32;3.83;;;8.90;65.40;;;;;;5075716;28;20035;-75
2023/03/18 04:45:27;;;;;;;4.32;3.70;;;8.90;65.40;;;;;;5093684;28;20078;-75
2023/03/18 04:47:53;;;;;;;4.63;4.00;;;8.90;65.40;;;;;;5075281;28;20024;-76
2023/03/18 04:50:19;;;;;;;4.57;3.83;;;8.90;65.40;;;;;;5093919;28;20436;-75
2023/03/18 04:52:45;;;;;;;5.13;4.00;;;8.90;65.50;;;;;;5093820;28;20024;-74
2023/03/18 04:55:12;;;;;;;4.13;3.42;;;8.90;65.50;;;;;;5094728;28;20136;-74
2023/03/18 04:57:41;;;;;;;4.53;3.90;;;8.90;65.50;;;;;;5075843;28;20031;-75
2023/03/18 05:00:10;;;;;;;3.60;3.17;;;8.90;65.60;;;;;;5075538;28;20028;-75
2023/03/18 05:02:36;;;;;;;4.45;3.60;;;8.90;65.60;;;;;;5075261;28;20035;-75
2023/03/18 05:05:02;;;;;;;4.32;3.60;;;8.90;65.60;;;;;;5075311;28;20027;-80
2023/03/18 05:07:28;;;;;;;4.57;3.63;;;8.90;65.60;;;;;;5093319;28;20035;-75
2023/03/18 05:09:54;;;;;;;4.38;3.83;;;8.90;65.60;;;;;;5093281;28;20036;-74
2023/03/18 05:12:20;;;;;;;3.88;3.45;;;8.90;65.70;;;;;;5093008;28;20489;-76
2023/03/18 05:14:46;;;;;;;3.70;3.30;;;8.90;65.70;;;;;;5093305;28;20025;-74
2023/03/18 05:17:16;;;;;;;4.00;3.40;;;8.90;65.70;;;;;;5093392;28;20020;-75
2023/03/18 05:19:46;;;;;;;3.80;3.40;;;8.90;65.70;;;;;;5075200;28;20028;-77
2023/03/18 05:22:14;;;;;;;3.83;3.38;;;8.90;65.70;;;;;;5075094;28;20044;-76
2023/03/18 05:24:40;;;;;;;3.67;3.25;;;8.90;65.70;;;;;;5069930;28;20036;-75
2023/03/18 05:27:06;;;;;;;3.97;3.58;;;8.90;65.70;;;;;;5073155;28;20033;-75
2023/03/18 05:29:32;;;;;;;4.05;3.65;;;9.00;65.70;;;;;;5054487;28;20025;-75
2023/03/18 05:31:59;;;;;;;4.22;3.30;;;8.90;65.60;;;;;;5079220;28;20031;-76
2023/03/18 05:34:25;;;;;;;4.10;3.40;;;9.00;65.70;;;;;;5090693;28;20051;-76
2023/03/18 05:36:51;;;;;;;4.13;3.65;;;9.00;65.70;;;;;;5082150;28;20488;-81
2023/03/18 05:39:17;;;;;;;3.65;3.20;;;9.00;65.70;;;;;;5068906;28;20052;-76
2023/03/18 05:41:43;;;;;;;4.25;3.60;;;9.00;65.60;;;;;;5088807;28;20016;-75
2023/03/18 05:44:09;;;;;;;3.85;3.30;;;9.00;65.60;;;;;;5074961;28;20024;-76
2023/03/18 05:46:35;;;;;;;3.92;3.28;;;9.00;65.60;;;;;;5081660;28;20020;-75
2023/03/18 05:49:00;;;;;;;3.55;3.25;;;9.00;65.60;;;;;;5064908;28;20029;-75
2023/03/18 05:51:26;;;;;;;3.90;3.50;;;9.00;65.60;;;;;;5080865;28;20047;-76
2023/03/18 05:53:52;;;;;;;3.60;3.25;;;9.10;65.70;;;;;;5073693;28;20020;-76
2023/03/18 05:56:18;;;;;;;4.70;3.75;;;9.00;65.60;;;;;;5072071;28;20068;-76
2023/03/18 05:58:44;;;;;;;3.78;3.30;;;9.10;65.70;;;;;;5082322;28;20021;-76
2023/03/18 06:01:10;;;;;;;4.05;3.20;;;9.10;65.70;;;;;;5076269;28;20040;-75
2023/03/18 06:03:36;;;;;;;3.72;3.40;;;9.10;65.70;;;;;;5058679;28;20033;-76
2023/03/18 06:06:02;;;;;;;4.03;3.63;;;9.10;65.70;;;;;;5060947;28;20119;-76
2023/03/18 06:08:28;;;;;;;4.63;3.60;;;9.20;65.70;;;;;;5077077;28;20363;-76
2023/03/18 06:10:54;;;;;;;4.35;3.60;;;9.20;65.70;;;;;;5076049;28;20031;-76
2023/03/18 06:13:20;;;;;;;4.18;3.60;;;9.30;65.70;;;;;;5076545;28;20032;-75
2023/03/18 06:15:46;;;;;;;4.15;3.47;;;9.30;65.70;;;;;;5076558;28;20064;-76
2023/03/18 06:18:12;;;;;;;4.20;3.78;;;9.30;65.60;;;;;;5076082;28;20048;-75
2023/03/18 06:20:38;;;;;;;4.05;3.65;;;9.40;65.60;;;;;;5075902;28;20020;-75
2023/03/18 06:23:05;;;;;;;4.18;3.55;;;9.40;65.60;;;;;;5088147;28;20165;-74
2023/03/18 06:25:31;;;;;;;4.65;3.65;;;9.40;65.60;;;;;;5070417;28;20359;-74
2023/03/18 06:27:57;;;;;;;3.90;3.50;;;9.40;65.60;;;;;;5093148;28;20031;-75
2023/03/18 06:30:23;;;;;;;4.05;3.42;;;9.40;65.60;;;;;;5096018;28;20117;-75
2023/03/18 06:32:49;;;;;;;3.33;3.03;;;9.40;65.60;;;;;;5077267;28;20055;-76
2023/03/18 06:35:15;;;;;;;3.85;3.45;;;9.40;65.60;;;;;;5079518;28;20512;-75
2023/03/18 06:37:41;;;;;;;3.70;3.30;;;9.40;65.60;;;;;;5077563;28;20028;-75
2023/03/18 06:40:09;;;;;;;3.45;3.15;;;9.40;65.60;;;;;;5079785;28;20031;-75
2023/03/18 06:42:35;;;;;;;3.65;3.22;;;9.40;65.60;;;;;;5075701;28;20033;-75
2023/03/18 06:45:01;;;;;;;3.30;3.00;;;9.40;65.60;;;;;;5074705;28;20389;-74
2023/03/18 06:47:27;;;;;;;3.35;3.05;;;9.40;65.60;;;;;;5074450;28;20462;-75
2023/03/18 06:49:55;;;;;;;3.17;2.88;;;9.40;65.60;;;;;;5056165;28;20032;-75
2023/03/18 06:52:22;;;;;;;3.20;2.90;;;9.40;65.60;;;;;;5074316;28;20029;-75
2023/03/18 06:54:48;;;;;;;3.42;3.13;;;9.40;65.50;;;;;;5074255;28;20037;-77
2023/03/18 06:57:13;;;;;;;4.25;3.72;;;9.40;65.40;;;;;;5074147;28;20096;-75
2023/03/18 06:59:39;;;;;;;3.33;3.03;;;9.50;65.60;;;;;;5055477;28;20087;-81
2023/03/18 07:02:07;;;;;;;3.15;2.85;;;9.40;65.70;;;;;;5078554;28;20043;-83
2023/03/18 07:04:33;;;;;;;3.28;2.97;;;9.50;65.80;;;;;;5056655;28;20037;-80
2023/03/18 07:06:59;;;;;;;5.32;3.00;;;9.50;65.90;;;;;;5074379;28;20386;-67
2023/03/18 07:09:25;;;;;;;12.90;2.72;;;9.60;65.90;;;;;;5056894;28;20094;-75
2023/03/18 07:11:52;;;;;;;2.70;2.50;;;9.80;68.70;;;;;;5063887;28;20040;-75
2023/03/18 07:14:18;;;;;;;3.70;2.40;;;10.10;67.80;;;;;;5082806;28;20024;-74
2023/03/18 07:16:44;;;;;;;2.53;2.33;;;10.40;67.30;;;;;;5066508;28;20382;-72
2023/03/18 07:19:10;;;;;;;2.20;2.10;;;10.50;66.80;;;;;;5066851;28;20522;-77
2023/03/18 07:21:36;;;;;;;2.10;2.00;;;10.60;66.50;;;;;;5063870;28;20097;-74
2023/03/18 07:24:02;;;;;;;2.47;2.33;;;10.70;66.20;;;;;;5065261;28;20111;-74
2023/03/18 07:26:29;;;;;;;3.15;2.85;;;10.80;66.10;;;;;;5065548;28;20385;-75
2023/03/18 07:28:55;;;;;;;2.30;2.10;;;10.80;66.00;;;;;;5064036;28;20116;-74
2023/03/18 07:31:21;;;;;;;2.15;2.03;;;10.80;65.90;;;;;;5083471;28;20069;-76
2023/03/18 07:33:47;;;;;;;2.30;2.20;;;10.80;65.80;;;;;;5082841;28;20067;-78
2023/03/18 07:36:14;;;;;;;2.42;2.22;;;10.80;65.70;;;;;;5081951;28;20025;-75
2023/03/18 07:38:39;;;;;;;2.00;1.90;;;10.80;65.70;;;;;;5083263;28;20012;-73
2023/03/18 07:41:06;;;;;;;2.30;2.10;;;10.80;65.70;;;;;;5083824;28;20027;-75
2023/03/18 07:43:32;;;;;;;2.15;2.00;;;10.80;65.70;;;;;;5083957;28;20032;-77
2023/03/18 07:45:57;;;;;;;2.40;2.20;;;10.80;65.60;;;;;;5074115;28;20536;-74
2023/03/18 07:48:23;;;;;;;2.10;2.00;;;10.80;65.60;;;;;;5072783;28;20024;-74
2023/03/18 07:50:49;;;;;;;2.10;2.00;;;10.80;65.60;;;;;;5073886;28;20051;-74
2023/03/18 07:53:15;;;;;;;2.47;2.28;;;10.80;65.60;;;;;;5073453;28;20028;-73
2023/03/18 07:55:41;;;;;;;2.00;1.90;;;10.80;65.50;;;;;;5093886;28;20032;-75
2023/03/18 07:58:09;;;;;;;2.30;2.20;;;10.80;65.50;;;;;;5083847;28;20523;-73
2023/03/18 08:00:35;;;;;;;2.15;1.98;;;10.80;65.50;;;;;;5063302;28;20024;-72
2023/03/18 08:03:01;;;;;;;2.58;2.38;;;10.80;65.50;;;;;;5062899;28;20063;-74
2023/03/18 08:05:27;;;;;;;2.17;2.08;;;10.80;65.40;;;;;;5089979;28;20053;-73
2023/03/18 08:07:53;;;;;;;2.25;2.15;;;10.70;65.40;;;;;;5073951;28;20141;-73
2023/03/18 08:10:19;;;;;;;2.25;2.15;;;10.80;65.40;;;;;;5074794;28;20017;-71
2023/03/18 08:12:45;;;;;;;1.88;1.77;;;10.80;66.00;;;;;;5093018;28;20032;-74
2023/03/18 08:15:11;;;;;;;2.45;2.25;;;10.80;65.40;;;;;;5092747;28;20382;-76
2023/03/18 08:17:38;;;;;;;2.10;2.00;;;10.80;65.30;;;;;;5092934;28;20024;-73
2023/03/18 08:20:05;;;;;;;2.65;2.10;;;10.80;65.30;;;;;;5073159;28;20020;-74
2023/03/18 08:22:31;;;;;;;2.10;2.00;;;10.80;65.30;;;;;;5079709;28;20028;-75
2023/03/18 08:24:57;;;;;;;2.25;2.05;;;10.80;65.20;;;;;;5093195;28;20054;-77
2023/03/18 08:27:23;;;;;;;2.10;2.00;;;10.80;65.20;;;;;;5084463;28;20032;-75
2023/03/18 08:29:49;;;;;;;2.20;2.00;;;10.90;65.10;;;;;;5072765;28;20446;-78
2023/03/18 08:32:15;;;;;;;2.38;2.20;;;10.90;65.10;;;;;;5081814;28;20035;-80
2023/03/18 08:34:41;;;;;;;2.10;2.00;;;10.90;65.10;;;;;;5083690;28;20061;-76
2023/03/18 08:37:08;;;;;;;2.10;2.00;;;10.90;65.00;;;;;;5113576;28;20367;-77
2023/03/18 08:39:34;;;;;;;2.05;1.95;;;10.90;65.00;;;;;;5113872;28;20023;-76
2023/03/18 08:42:03;;;;;;;1.95;1.85;;;10.90;65.00;;;;;;5095658;28;20033;-78
2023/03/18 08:44:29;;;;;;;2.00;1.90;;;10.90;64.90;;;;;;5095251;28;20034;-78
2023/03/18 08:46:56;;;;;;;2.20;2.00;;;10.90;64.90;;;;;;5114007;28;20088;-76
2023/03/18 08:49:23;;;;;;;2.33;2.13;;;11.00;64.90;;;;;;5091970;28;20088;-80
2023/03/18 08:51:49;;;;;;;2.03;1.92;;;11.00;64.80;;;;;;5084077;28;20046;-78
2023/03/18 08:54:15;;;;;;;2.08;1.98;;;11.00;64.80;;;;;;5084592;28;20028;-84
2023/03/18 08:56:41;;;;;;;1.92;1.83;;;11.00;64.80;;;;;;5107150;28;20031;-81
2023/03/18 08:59:09;;;;;;;2.10;2.00;;;11.00;64.80;;;;;;5104986;28;20047;-76
2023/03/18 09:01:36;;;;;;;2.30;2.10;;;11.10;64.80;;;;;;5103309;28;20026;-77
2023/03/18 09:04:03;;;;;;;2.20;2.00;;;11.10;64.70;;;;;;5104093;28;20520;-73
2023/03/18 09:06:29;;;;;;;2.13;2.03;;;11.10;64.60;;;;;;5105132;28;20104;-73
2023/03/18 09:08:56;;;;;;;1.88;1.77;;;11.10;64.60;;;;;;5104412;28;20024;-73
2023/03/18 09:11:22;;;;;;;2.05;1.95;;;11.10;64.50;;;;;;5087246;28;20028;-72
2023/03/18 09:13:48;;;;;;;1.98;1.88;;;11.10;64.50;;;;;;5105230;28;20092;-78
2023/03/18 09:16:14;;;;;;;2.13;2.00;;;11.20;64.60;;;;;;5111776;28;20031;-74
2023/03/18 09:18:39;;;;;;;2.63;2.00;;;11.20;64.50;;;;;;5112632;28;20102;-80
2023/03/18 09:21:05;;;;;;;2.22;2.10;;;11.20;64.40;;;;;;5112587;28;20039;-82
2023/03/18 09:23:33;;;;;;;2.22;2.00;;;11.30;66.70;;;;;;5110301;28;20046;-80
2023/03/18 09:25:59;;;;;;;2.05;1.95;;;11.40;66.90;;;;;;5099840;28;20036;-80
2023/03/18 09:28:25;;;;;;;2.10;2.00;;;11.60;66.80;;;;;;5118560;28;20023;-79
2023/03/18 09:30:51;;;;;;;2.30;2.20;;;11.60;67.00;;;;;;5114777;28;20024;-81
2023/03/18 09:33:17;;;;;;;2.30;2.10;;;11.60;66.80;;;;;;5095739;28;20382;-80
2023/03/18 09:35:43;;;;;;;2.30;2.10;;;11.70;66.60;;;;;;5097248;28;20103;-80
2023/03/18 09:38:15;;;;;;;2.25;2.05;;;11.70;66.40;;;;;;5096957;28;20028;-81
2023/03/18 09:41:12;;;;;;;2.20;2.00;;;11.70;66.30;;;;;;5078674;28;20513;-82
2023/03/18 09:43:51;;;;;;;2.22;2.03;;;11.80;66.20;;;;;;5096578;28;20108;-80
2023/03/18 09:46:26;;;;;;;2.00;1.90;;;11.80;66.10;;;;;;5096554;28;20073;-80
2023/03/18 09:49:01;;;;;;;2.10;2.00;;;11.80;66.00;;;;;;5096780;28;20028;-81
2023/03/18 09:51:44;;;;;;;;;;;11.80;65.90;;;;;;5097127;28;20024;-81
2023/03/18 09:54:18;;;;;;;2.45;2.00;;;11.80;66.00;;;;;;5096214;28;19949;-81
2023/03/18 09:56:45;;;;;;;1.90;1.80;;;11.80;65.70;;;;;;5096480;28;20031;-83
2023/03/18 09:59:36;;;;;;;1.95;1.80;;;11.80;65.60;;;;;;5096626;28;20090;-80
2023/03/18 10:02:14;;;;;;;2.45;2.25;;;11.80;65.50;;;;;;5096223;28;20059;-81
2023/03/18 10:04:48;;;;;;;2.20;2.10;;;11.80;65.50;;;;;;5077761;28;20543;-80
2023/03/18 10:07:18;;;;;;;2.10;2.00;;;11.80;65.50;;;;;;5096121;28;20122;-80
2023/03/18 10:09:49;;;;;;;2.15;2.03;;;11.80;66.00;;;;;;5078354;28;20344;-79
2023/03/18 10:12:32;;;;;;;2.20;2.00;;;11.70;65.40;;;;;;5077973;28;20035;-81
2023/03/18 10:15:22;;;;;;;1.98;1.88;;;11.80;65.40;;;;;;5078016;28;20027;-84
2023/03/18 10:18:16;;;;;;;2.10;1.90;;;11.80;65.30;;;;;;5095753;28;20024;-84
2023/03/18 10:20:56;;;;;;;2.55;2.30;;;11.80;65.20;;;;;;5085789;28;20112;-84
2023/03/18 10:23:43;;;;;;;1.98;1.85;;;11.80;65.20;;;;;;5095750;28;20054;-82
2023/03/18 10:26:37;;;;;;;2.30;1.98;;;11.80;65.20;;;;;;5095838;28;20024;-82
2023/03/18 10:29:34;;;;;;;2.10;2.00;;;11.70;65.20;;;;;;5084700;28;20089;-83
2023/03/18 10:32:18;;;;;;;1.83;1.73;;;11.70;65.10;;;;;;5096180;28;20105;-82
2023/03/18 10:34:53;;;;;;;2.03;1.92;;;11.70;65.10;;;;;;5105963;28;20051;-83
2023/03/18 10:37:47;;;;;;;1.80;1.70;;;11.70;65.20;;;;;;5115827;28;20024;-82
2023/03/18 10:40:16;;;;;;;2.10;2.00;;;11.70;65.10;;;;;;5114579;28;20031;-82
2023/03/18 10:42:43;;;;;;;2.10;2.00;;;11.80;65.00;;;;;;5115867;28;20176;-83
2023/03/18 10:45:17;;;;;;;2.08;1.98;;;11.80;64.90;;;;;;5115802;28;20036;-83
2023/03/18 10:47:45;;;;;;;;;;;11.80;64.90;;;;;;5116301;28;20028;-83
2023/03/18 10:50:28;;;;;;;2.00;1.90;;;11.80;64.80;;;;;;5097757;28;19911;-82
2023/03/18 10:53:03;;;;;;;1.75;1.65;;;11.80;64.80;;;;;;5115782;28;20027;-83
2023/03/18 10:55:31;;;;;;;;;;;11.80;64.80;;;;;;5116124;28;20086;-84
2023/03/18 10:57:58;;;;;;;1.90;1.80;;;11.70;64.60;;;;;;5115368;28;19904;-82
2023/03/18 11:00:31;;;;;;;2.08;1.90;;;11.70;64.70;;;;;;5114913;28;20058;-83
2023/03/18 11:02:58;;;;;;;1.88;1.77;;;11.70;64.80;;;;;;5115367;28;20358;-83
2023/03/18 11:05:27;;;;;;;2.00;1.90;;;11.70;64.80;;;;;;5114181;28;20038;-84
2023/03/18 11:08:05;;;;;;;1.90;1.80;;;11.60;64.80;;;;;;5115840;28;20028;-83
2023/03/18 11:10:44;;;;;;;2.05;1.95;;;11.60;64.80;;;;;;5115890;28;20024;-83
2023/03/18 11:13:16;;;;;;;1.90;1.75;;;11.60;64.80;;;;;;5115276;28;20110;-83
2023/03/18 11:15:50;;;;;;;2.13;1.92;;;11.60;64.80;;;;;;5097330;28;20022;-83
2023/03/18 11:18:20;;;;;;;2.10;2.00;;;11.60;65.40;;;;;;5114842;28;20474;-84
2023/03/18 11:20:48;;;;;;;1.95;1.85;;;11.60;64.80;;;;;;5115275;28;20469;-84
2023/03/18 11:23:54;;;;;;;2.15;1.92;;;11.60;64.80;;;;;;5113695;28;20439;-84
2023/03/18 11:26:25;;;;;;;2.10;2.00;;;11.60;64.90;;;;;;5115315;28;20032;-84
2023/03/18 11:28:57;;;;;;;1.95;1.85;;;11.50;64.80;;;;;;5114949;28;20030;-82
2023/03/18 11:31:23;;;;;;;1.80;1.70;;;11.60;64.80;;;;;;5113603;28;20023;-83
2023/03/18 11:33:49;;;;;;;1.90;1.80;;;11.60;64.80;;;;;;5115199;28;20035;-82
2023/03/18 11:36:22;;;;;;;2.00;1.90;;;11.60;64.80;;;;;;5114625;28;20107;-83
2023/03/18 11:38:56;;;;;;;1.90;1.80;;;11.60;64.80;;;;;;5115361;28;20072;-83
2023/03/18 11:41:26;;;;;;;2.35;1.85;;;11.60;64.80;;;;;;5096450;28;20040;-80
2023/03/18 11:43:55;;;;;;;1.90;1.80;;;11.60;64.80;;;;;;5114934;28;20480;-82
2023/03/18 11:46:24;;;;;;;1.90;1.80;;;11.60;64.70;;;;;;5113799;28;20027;-82
2023/03/18 11:48:49;;;;;;;1.88;1.77;;;11.50;64.70;;;;;;5114664;28;20023;-82
2023/03/18 11:51:32;;;;;;;2.25;2.05;;;11.50;64.70;;;;;;5114402;28;20420;-83
2023/03/18 11:54:13;;;;;;;1.80;1.70;;;11.50;64.70;;;;;;5114249;28;20085;-81
2023/03/18 11:56:41;;;;;;;1.83;1.73;;;11.50;64.60;;;;;;5114577;28;20070;-83
2023/03/18 11:59:19;;;;;;;1.90;1.80;;;11.50;64.60;;;;;;5114332;28;20023;-83
2023/03/18 12:02:16;;;;;;;2.03;1.92;;;11.50;64.60;;;;;;5096263;28;20032;-81
2023/03/18 12:05:07;;;;;;;2.00;1.90;;;11.50;64.60;;;;;;5114446;28;20028;-83
2023/03/18 12:07:48;;;;;;;1.90;1.80;;;11.50;64.60;;;;;;5114213;28;20043;-82
2023/03/18 12:10:27;;;;;;;1.98;1.83;;;11.40;64.60;;;;;;5114079;28;20081;-81
2023/03/18 12:13:28;;;;;;;1.80;1.70;;;11.50;64.60;;;;;;5114557;28;20051;-83
2023/03/18 12:15:56;;;;;;;1.70;1.60;;;11.50;64.60;;;;;;5114147;28;20469;-83
2023/03/18 12:18:54;;;;;;;1.88;1.77;;;11.50;64.70;;;;;;5113888;28;20042;-84
2023/03/18 12:21:52;;;;;;;1.85;1.75;;;11.40;64.60;;;;;;5114096;28;20867;-84
2023/03/18 12:24:53;;;;;;;1.92;1.83;;;11.40;64.60;;;;;;5063761;28;20105;-84
2023/03/18 12:27:44;;;;;;;1.90;1.80;;;11.40;64.60;;;;;;5103449;28;20047;-84
2023/03/18 12:30:18;;;;;;;1.90;1.80;;;11.40;64.60;;;;;;5054610;28;20431;-82
2023/03/18 12:33:09;;;;;;;1.98;1.88;;;11.40;64.60;;;;;;5113558;28;20110;-84
2023/03/18 12:36:16;;;;;;;2.17;2.00;;;11.40;64.60;;;;;;5103010;28;20118;-82
2023/03/18 12:39:07;;;;;;;1.73;1.63;;;11.40;64.60;;;;;;5114019;28;20027;-83
2023/03/18 12:41:49;;;;;;;1.80;1.70;;;11.40;64.60;;;;;;5113717;28;20028;-83
2023/03/18 12:44:27;;;;;;;1.73;1.63;;;11.40;64.60;;;;;;5112282;28;20032;-85
2023/03/18 12:47:51;;;;;;;2.00;1.90;;;11.40;65.10;;;;;;5097692;28;20023;-83
2023/03/18 12:50:19;;;;;;;1.80;1.70;;;11.40;64.50;;;;;;5076391;28;20043;-86
2023/03/18 12:52:57;;;;;;;1.95;1.85;;;11.40;64.50;;;;;;5090967;28;20032;-82
2023/03/18 12:55:26;;;;;;;2.10;1.90;;;11.40;64.50;;;;;;5085454;28;20134;-82
2023/03/18 12:57:58;;;;;;;2.00;1.90;;;11.40;64.60;;;;;;5113740;28;20043;-83
2023/03/18 13:00:34;;;;;;;2.05;1.95;;;11.40;64.50;;;;;;5113418;28;20083;-81
2023/03/18 13:03:21;;;;;;;2.00;1.90;;;11.40;64.50;;;;;;5113392;28;20032;-82
2023/03/18 13:06:09;;;;;;;2.10;1.90;;;11.40;64.60;;;;;;5113378;28;20024;-83
2023/03/18 13:08:38;;;;;;;2.00;1.90;;;11.30;64.50;;;;;;5087175;28;20035;-83